»·PEaware :: N701GT KSLC-KSAN

N701GT :: KSLC-KSAN

FLIGHT INFORMATION

Flight Status: Arrived
Operator: Privately registered:
United States
More flights under this callsign
Pilot: Anonymous 17564 (17564)
Aircraft: CESSNA 510 CITATION MUSTANG
(C510)
More flights by this aircraft type
Origin: KSLC Salt Lake City Intl
United States
Destination: KSAN San Diego Intl-Lindbergh
United States
More flights between these airports :: More routes between these airports
Route: +ZIONZ1 EHK LAKRR Q73 LVELL LUCKI1
File this flight plan on PilotEdge
Remarks:
Altitude:
(Current/Filed)
26,000ft
Speed:
(Current/Filed)
260kts
Departed: 29-Mar-19 08:07 PM
Arrived: 29-Mar-19 10:20 PM
Distance/Time
Traveled:
544nm/2:13
Distance/Time
To Go:
Arrived

Flight Plot

Page will automatically refresh every two minutes.


Map Options




Map Legend


Flown Route
Filed Route
Departure Airport
Arrival Airport
Navaid (VOR, NDB)
Fix

Horizontal Profiles

Position Reports

Time Latitude Longitude Heading Altitude Ground
Speed
29-Mar-19 19:44 40.780877 -111.958605 179 4229ft 0kts
29-Mar-19 19:45 40.780877 -111.958605 179 4229ft 0kts
29-Mar-19 19:46 40.780877 -111.958605 179 4229ft 0kts
29-Mar-19 19:47 40.780877 -111.958605 179 4229ft 0kts
29-Mar-19 19:48 40.780877 -111.958605 179 4229ft 0kts
29-Mar-19 19:49 40.780877 -111.958605 179 4229ft 0kts
29-Mar-19 19:50 40.780877 -111.958605 179 4229ft 0kts
29-Mar-19 19:51 40.780877 -111.958605 179 4229ft 0kts
29-Mar-19 19:52 40.780877 -111.958605 179 4229ft 0kts
29-Mar-19 19:53 40.780877 -111.958605 179 4229ft 0kts
29-Mar-19 19:54 40.780877 -111.958605 179 4229ft 0kts
29-Mar-19 19:55 40.780877 -111.958605 179 4229ft 0kts
29-Mar-19 19:56 40.781330 -111.959166 359 4229ft 6kts
29-Mar-19 19:57 40.783016 -111.959994 0 4229ft 8kts
29-Mar-19 19:58 40.785980 -111.959984 0 4229ft 7kts
29-Mar-19 19:59 40.787433 -111.959981 0 4229ft 7kts
29-Mar-19 20:00 40.790944 -111.959976 0 4229ft 17kts
29-Mar-19 20:01 40.796724 -111.959930 6 4229ft 24kts
29-Mar-19 20:02 40.798959 -111.960412 274 4229ft 0kts
29-Mar-19 20:03 40.798959 -111.960412 274 4229ft 0kts
29-Mar-19 20:04 40.798959 -111.960413 274 4229ft 0kts
29-Mar-19 20:05 40.798959 -111.960414 274 4229ft 0kts
29-Mar-19 20:06 40.794717 -111.962124 180 4229ft 78kts
29-Mar-19 20:07 40.758118 -111.959755 172 5186ft 161kts
29-Mar-19 20:08 40.698256 -111.950686 172 6806ft 240kts
29-Mar-19 20:09 40.631980 -111.937070 172 9301ft 240kts
29-Mar-19 20:10 40.566761 -111.922913 187 11792ft 231kts
29-Mar-19 20:11 40.505444 -111.940739 199 14290ft 223kts
29-Mar-19 20:12 40.444775 -111.952734 190 16790ft 220kts
29-Mar-19 20:13 40.385512 -111.947078 191 19268ft 203kts
29-Mar-19 20:14 40.323456 -111.943268 189 19980ft 256kts
29-Mar-19 20:15 40.254725 -111.940588 198 21808ft 238kts
29-Mar-19 20:16 40.188889 -111.951030 201 23185ft 240kts
29-Mar-19 20:17 40.122059 -111.961735 201 24472ft 244kts
29-Mar-19 20:18 40.053277 -111.971903 201 25512ft 253kts
29-Mar-19 20:19 39.980553 -111.982806 200 25875ft 279kts
29-Mar-19 20:20 39.899616 -111.994805 199 25871ft 304kts
29-Mar-19 20:21 39.814195 -112.006967 198 25870ft 310kts
29-Mar-19 20:22 39.728467 -112.019142 198 25872ft 310kts
29-Mar-19 20:23 39.642815 -112.031509 199 25874ft 309kts
29-Mar-19 20:24 39.557297 -112.043904 198 25880ft 308kts
29-Mar-19 20:25 39.472420 -112.056171 199 25882ft 307kts
29-Mar-19 20:26 39.387277 -112.068279 199 25884ft 307kts
29-Mar-19 20:27 39.302501 -112.080292 199 25892ft 306kts
29-Mar-19 20:28 39.218003 -112.092268 199 25893ft 305kts
29-Mar-19 20:29 39.134929 -112.108118 211 25895ft 288kts
29-Mar-19 20:30 39.065220 -112.153626 220 25896ft 277kts
29-Mar-19 20:31 38.998478 -112.202780 220 25901ft 277kts
29-Mar-19 20:32 38.931837 -112.251514 220 25904ft 276kts
29-Mar-19 20:33 38.865209 -112.299930 220 25907ft 275kts
29-Mar-19 20:34 38.798581 -112.348225 220 25911ft 274kts
29-Mar-19 20:35 38.732320 -112.396130 220 25916ft 274kts
29-Mar-19 20:36 38.665947 -112.443977 220 25919ft 272kts
29-Mar-19 20:37 38.599766 -112.491622 220 25923ft 273kts
29-Mar-19 20:38 38.533610 -112.539147 220 25924ft 272kts
29-Mar-19 20:39 38.467560 -112.586446 220 25926ft 272kts
29-Mar-19 20:40 38.401569 -112.633657 220 25929ft 272kts
29-Mar-19 20:41 38.335592 -112.680737 220 25931ft 271kts
29-Mar-19 20:42 38.269775 -112.727601 220 25931ft 271kts
29-Mar-19 20:43 38.203783 -112.774490 220 25932ft 271kts
29-Mar-19 20:44 38.137963 -112.821167 220 25932ft 271kts
29-Mar-19 20:45 38.072205 -112.867692 220 25933ft 271kts
29-Mar-19 20:46 38.006076 -112.914380 220 25933ft 271kts
29-Mar-19 20:47 37.941549 -112.959734 221 25932ft 263kts
29-Mar-19 20:48 37.877696 -113.004793 221 25932ft 262kts
29-Mar-19 20:49 37.813915 -113.049615 221 25932ft 262kts
29-Mar-19 20:50 37.750579 -113.095012 222 25931ft 261kts
29-Mar-19 20:51 37.687826 -113.141092 222 25930ft 261kts
29-Mar-19 20:52 37.624897 -113.187181 222 25933ft 261kts
29-Mar-19 20:53 37.561977 -113.233135 222 25941ft 261kts
29-Mar-19 20:54 37.499252 -113.278810 222 25953ft 260kts
29-Mar-19 20:55 37.436590 -113.324378 222 25968ft 260kts
29-Mar-19 20:56 37.373919 -113.369855 222 25982ft 259kts
29-Mar-19 20:58 37.311293 -113.415222 222 25993ft 259kts
29-Mar-19 20:59 37.249202 -113.460086 222 25998ft 257kts
29-Mar-19 21:00 37.186315 -113.505606 221 26001ft 266kts
29-Mar-19 21:01 37.121411 -113.552386 221 26001ft 272kts
29-Mar-19 21:02 37.055437 -113.599719 221 26000ft 274kts
29-Mar-19 21:03 36.988970 -113.647333 221 26002ft 275kts
29-Mar-19 21:04 36.922737 -113.694715 221 26000ft 274kts
29-Mar-19 21:05 36.856298 -113.742130 222 25999ft 274kts
29-Mar-19 21:06 36.790124 -113.789295 222 25998ft 273kts
29-Mar-19 21:07 36.724167 -113.836215 222 25997ft 272kts
29-Mar-19 21:08 36.658632 -113.882734 222 25999ft 270kts
29-Mar-19 21:09 36.593403 -113.928960 222 25999ft 269kts
29-Mar-19 21:10 36.528330 -113.974980 222 25994ft 267kts
29-Mar-19 21:11 36.463863 -114.020484 222 25993ft 266kts
29-Mar-19 21:12 36.399531 -114.065804 222 25993ft 265kts
29-Mar-19 21:13 36.335455 -114.110854 222 25993ft 264kts
29-Mar-19 21:14 36.271391 -114.155824 222 25993ft 264kts
29-Mar-19 21:15 36.207429 -114.200636 222 25993ft 264kts
29-Mar-19 21:16 36.143619 -114.245259 222 25992ft 263kts
29-Mar-19 21:17 36.082212 -114.292902 232 25993ft 251kts
29-Mar-19 21:18 36.035189 -114.355177 237 25991ft 247kts
29-Mar-19 21:19 35.989649 -114.418590 237 25991ft 246kts
29-Mar-19 21:20 35.944165 -114.481567 237 25993ft 245kts
29-Mar-19 21:21 35.898644 -114.544406 237 26000ft 245kts
29-Mar-19 21:22 35.853110 -114.607137 237 25996ft 245kts
29-Mar-19 21:22 35.815321 -114.659102 237 25996ft 245kts
29-Mar-19 21:24 35.762242 -114.732023 236 25996ft 245kts
29-Mar-19 21:25 35.716636 -114.794508 236 25998ft 245kts
29-Mar-19 21:25 35.678816 -114.846193 236 26000ft 244kts
29-Mar-19 21:27 35.625726 -114.918827 236 25993ft 244kts
29-Mar-19 21:27 35.588003 -114.970430 236 25995ft 244kts
29-Mar-19 21:29 35.534816 -115.043007 236 25997ft 244kts
29-Mar-19 21:29 35.491746 -115.089362 218 26002ft 266kts
29-Mar-19 21:30 35.419610 -115.119201 213 26004ft 275kts
29-Mar-19 21:31 35.346932 -115.147796 213 25999ft 274kts
29-Mar-19 21:32 35.274907 -115.177286 214 26010ft 273kts
29-Mar-19 21:34 35.190914 -115.212111 214 26026ft 272kts
29-Mar-19 21:34 35.131207 -115.236905 214 26037ft 272kts
29-Mar-19 21:35 35.056467 -115.268302 213 26041ft 290kts
29-Mar-19 21:36 34.981109 -115.299104 213 26041ft 280kts
29-Mar-19 21:37 34.907958 -115.329244 214 26042ft 275kts
29-Mar-19 21:38 34.835795 -115.359061 214 26045ft 272kts
29-Mar-19 21:39 34.764148 -115.388569 214 26043ft 271kts
29-Mar-19 21:40 34.692962 -115.417807 214 26051ft 270kts
29-Mar-19 21:41 34.621790 -115.446993 214 26054ft 269kts
29-Mar-19 21:42 34.550868 -115.476068 214 26057ft 269kts
29-Mar-19 21:43 34.479696 -115.505149 214 26062ft 269kts
29-Mar-19 21:44 34.408798 -115.534082 214 26068ft 269kts
29-Mar-19 21:45 34.338042 -115.562892 214 26071ft 268kts
29-Mar-19 21:46 34.267162 -115.591723 214 26069ft 268kts
29-Mar-19 21:47 34.195665 -115.621636 215 25742ft 274kts
29-Mar-19 21:48 34.123798 -115.655615 215 25353ft 280kts
29-Mar-19 21:49 34.050492 -115.690362 215 24923ft 288kts
29-Mar-19 21:50 33.970811 -115.728413 209 24523ft 315kts
29-Mar-19 21:51 33.889703 -115.766458 210 24144ft 312kts
29-Mar-19 21:52 33.809388 -115.805950 210 24111ft 312kts
29-Mar-19 21:53 33.728593 -115.844910 209 24095ft 313kts
29-Mar-19 21:54 33.647380 -115.882765 209 24073ft 313kts
29-Mar-19 21:55 33.566346 -115.920550 209 24066ft 313kts
29-Mar-19 21:56 33.497738 -115.976873 236 23503ft 292kts
29-Mar-19 21:57 33.450496 -116.054625 241 22112ft 286kts
29-Mar-19 21:58 33.405690 -116.132636 241 20713ft 284kts
29-Mar-19 21:59 33.360870 -116.209883 240 19331ft 281kts
29-Mar-19 22:00 33.304523 -116.275166 214 18926ft 299kts
29-Mar-19 22:01 33.228365 -116.316673 210 17569ft 298kts
29-Mar-19 22:02 33.153842 -116.357999 211 15771ft 294kts
29-Mar-19 22:03 33.080808 -116.400248 211 14079ft 286kts
29-Mar-19 22:04 33.009168 -116.443218 217 13390ft 291kts
29-Mar-19 22:05 32.945953 -116.502802 225 12118ft 286kts
29-Mar-19 22:06 32.886660 -116.564011 224 10716ft 280kts
29-Mar-19 22:07 32.828957 -116.622335 222 9317ft 261kts
29-Mar-19 22:08 32.776057 -116.678150 231 7915ft 249kts
29-Mar-19 22:09 32.740704 -116.746694 243 6529ft 244kts
29-Mar-19 22:10 32.708692 -116.815139 242 5985ft 227kts
29-Mar-19 22:11 32.682449 -116.880978 249 5252ft 187kts
29-Mar-19 22:12 32.670539 -116.930673 282 4980ft 136kts
29-Mar-19 22:13 32.681471 -116.976091 290 4536ft 153kts
29-Mar-19 22:14 32.693540 -117.024680 288 3433ft 150kts
29-Mar-19 22:15 32.704037 -117.067873 289 2365ft 128kts
29-Mar-19 22:16 32.713790 -117.108477 287 1350ft 128kts
29-Mar-19 22:17 32.723818 -117.148204 286 679ft 125kts
29-Mar-19 22:18 32.732952 -117.187071 285 17ft 95kts
29-Mar-19 22:19 32.734354 -117.194497 245 17ft 0kts
29-Mar-19 22:20 32.733668 -117.194363 109 17ft 8kts
29-Mar-19 22:21 32.733527 -117.191588 34 17ft 6kts
29-Mar-19 22:22 32.734722 -117.189841 105 17ft 9kts
29-Mar-19 22:23 32.733966 -117.186654 106 17ft 9kts
29-Mar-19 22:24 32.732824 -117.181924 106 17ft 19kts
29-Mar-19 22:25 32.733797 -117.179735 284 17ft 0kts
29-Mar-19 22:26 32.733797 -117.179735 284 17ft 0kts

Navigation Log

Ident Type
Flight plan parsing failed, navigation log unavailable